Time;durP1;ratioP1;P1;durP2;ratioP2;P2;SDS_P1;SDS_P2;PMS_P1;PMS_P2;Temp;Humidity;BMP_temperature;BMP_pressure;BME280_temperature;BME280_humidity;BME280_pressure;Samples;Min_cycle;Max_cycle;Signal;HPM_P1;HPM_P2
2023/07/09 00:00:48;;;;;;;6.30;5.70;;;;;;;17.79;54.33;100548.95;129287;1268;107617;-77
2023/07/09 00:04:14;;;;;;;6.60;6.00;;;;;;;17.74;54.35;100548.41;129421;1273;107133;-74
2023/07/09 00:07:25;;;;;;;7.00;5.90;;;;;;;17.70;54.48;100551.33;129409;1268;109339;-75
2023/07/09 00:10:31;;;;;;;6.80;5.90;;;;;;;17.66;54.55;100554.31;129245;1270;107643;-75
2023/07/09 00:13:37;;;;;;;6.50;5.70;;;;;;;17.63;54.59;100555.70;129419;1267;109281;-75
2023/07/09 00:16:44;;;;;;;6.20;5.50;;;;;;;17.58;54.68;100553.49;129220;1273;107594;-76
2023/07/09 00:19:49;;;;;;;9.10;6.50;;;;;;;17.57;54.71;100559.34;129187;1272;107608;-75
2023/07/09 00:22:55;;;;;;;6.90;6.20;;;;;;;17.57;54.88;100559.61;129388;1273;107683;-75
2023/07/09 00:26:03;;;;;;;6.90;6.20;;;;;;;17.64;55.27;100562.30;129345;1273;107585;-75
2023/07/09 00:29:11;;;;;;;6.50;5.70;;;;;;;17.59;55.02;100560.90;129428;1267;107344;-75
2023/07/09 00:32:20;;;;;;;7.00;6.30;;;;;;;17.53;55.11;100563.19;129511;1268;106508;-75
2023/07/09 00:35:26;;;;;;;7.30;6.50;;;;;;;17.50;55.35;100569.09;129240;1273;107430;-74
2023/07/09 00:38:38;;;;;;;7.50;6.40;;;;;;;17.49;55.17;100572.31;129269;1270;107432;-74
2023/07/09 00:41:46;;;;;;;7.00;6.20;;;;;;;17.42;55.32;100570.64;129161;1273;129040;-75
2023/07/09 00:44:54;;;;;;;8.00;6.10;;;;;;;17.37;55.59;100572.46;129507;1267;107681;-75
2023/07/09 00:48:01;;;;;;;7.90;6.30;;;;;;;17.41;56.06;100570.33;129423;1273;106716;-75
2023/07/09 00:51:13;;;;;;;7.00;6.20;;;;;;;17.45;55.68;100568.42;129319;1268;107110;-74
2023/07/09 00:54:30;;;;;;;7.80;5.80;;;;;;;17.40;55.90;100568.90;129338;1268;107640;-74
2023/07/09 00:57:39;;;;;;;6.20;5.60;;;;;;;17.39;55.91;100572.26;129263;1272;107327;-74
2023/07/09 01:00:52;;;;;;;6.60;5.90;;;;;;;17.36;55.87;100568.45;129282;1273;107526;-75
2023/07/09 01:04:00;;;;;;;7.20;6.40;;;;;;;17.31;55.78;100569.22;129342;1273;107565;-75
2023/07/09 01:07:07;;;;;;;6.90;6.20;;;;;;;17.24;55.92;100566.85;129295;1270;107395;-75
2023/07/09 01:10:13;;;;;;;6.50;5.90;;;;;;;17.18;56.16;100565.42;129244;1273;106567;-75
2023/07/09 01:13:20;;;;;;;7.30;6.40;;;;;;;17.18;56.19;100568.15;129263;1275;107572;-75
2023/07/09 01:16:29;;;;;;;6.50;5.90;;;;;;;17.21;56.48;100569.23;129457;1267;107612;-75
2023/07/09 01:19:43;;;;;;;6.40;5.80;;;;;;;17.21;56.18;100568.34;129274;1272;107656;-74
2023/07/09 01:22:51;;;;;;;6.60;5.90;;;;;;;17.13;56.27;100569.70;129375;1273;106220;-75
2023/07/09 01:25:56;;;;;;;7.10;5.90;;;;;;;17.09;56.49;100567.30;129560;1272;107587;-74
2023/07/09 01:29:03;;;;;;;6.50;5.60;;;;;;;17.06;56.43;100569.08;129525;1273;107537;-75
2023/07/09 01:32:10;;;;;;;8.50;6.40;;;;;;;17.11;56.73;100568.98;129334;1267;108181;-74
2023/07/09 01:35:17;;;;;;;6.40;5.80;;;;;;;17.14;56.65;100567.52;129286;1268;107200;-75
2023/07/09 01:38:23;;;;;;;7.20;5.80;;;;;;;17.08;56.48;100568.52;129418;1267;107387;-74
2023/07/09 01:41:34;;;;;;;7.60;6.30;;;;;;;17.02;56.74;100571.18;129402;1274;107501;-74
2023/07/09 01:44:40;;;;;;;7.20;6.20;;;;;;;17.05;56.88;100570.97;129200;1273;106458;-74
2023/07/09 01:47:46;;;;;;;7.10;5.90;;;;;;;16.99;56.84;100572.05;129153;1267;107319;-74
2023/07/09 01:50:52;;;;;;;8.50;6.40;;;;;;;17.00;57.11;100571.23;129122;1270;107389;-74
2023/07/09 01:53:59;;;;;;;7.00;6.30;;;;;;;17.03;56.86;100572.39;129191;1273;107456;-75
2023/07/09 01:57:19;;;;;;;7.30;6.30;;;;;;;16.97;56.94;100577.61;129225;1273;107435;-75
2023/07/09 02:00:24;;;;;;;6.90;6.20;;;;;;;16.93;57.30;100580.96;129117;1268;107560;-75
2023/07/09 02:03:30;;;;;;;7.20;5.90;;;;;;;16.97;57.05;100577.08;129226;1268;106597;-75
2023/07/09 02:06:36;;;;;;;6.90;6.20;;;;;;;16.90;56.97;100580.36;129232;1274;107491;-75
2023/07/09 02:09:41;;;;;;;6.90;5.70;;;;;;;16.88;57.55;100587.09;129346;1267;107550;-75
2023/07/09 02:12:47;;;;;;;8.80;5.70;;;;;;;17.25;59.16;100591.08;129318;1273;106112;-76
2023/07/09 02:15:53;;;;;;;6.90;5.30;;;;;;;17.95;58.66;100589.38;129388;1274;107538;-76
2023/07/09 02:18:58;;;;;;;6.40;5.50;;;;;;;18.42;57.93;100589.91;129418;1270;107640;-75
2023/07/09 02:22:05;;;;;;;8.00;5.80;;;;;;;18.64;57.65;100589.10;129448;1267;107554;-75
2023/07/09 02:25:11;;;;;;;6.10;5.60;;;;;;;18.88;57.84;100582.04;129419;1269;107654;-75
2023/07/09 02:28:18;;;;;;;6.70;5.40;;;;;;;19.38;57.88;100583.35;129278;1273;106434;-76
2023/07/09 02:31:23;;;;;;;6.50;5.20;;;;;;;19.75;56.84;100581.67;129362;1273;107417;-76
2023/07/09 02:34:30;;;;;;;6.00;5.40;;;;;;;19.91;57.09;100587.66;129460;1273;107592;-75
2023/07/09 02:37:36;;;;;;;6.00;5.40;;;;;;;20.19;56.56;100584.89;129448;1273;108754;-75
2023/07/09 02:40:41;;;;;;;6.50;5.60;;;;;;;20.20;56.22;100585.48;129184;1268;108187;-75
2023/07/09 02:43:47;;;;;;;6.30;5.70;;;;;;;20.37;56.05;100591.70;129459;1268;107258;-75
2023/07/09 02:46:52;;;;;;;5.90;5.10;;;;;;;20.37;55.71;100592.23;129342;1267;107297;-75
2023/07/09 02:49:58;;;;;;;7.30;5.50;;;;;;;20.41;55.87;100594.27;129475;1273;107546;-75
2023/07/09 02:53:03;;;;;;;6.70;6.00;;;;;;;20.52;55.47;100590.00;129347;1273;106641;-75
2023/07/09 02:56:09;;;;;;;6.40;5.70;;;;;;;20.57;55.35;100587.55;129393;1273;107574;-76
2023/07/09 02:59:15;;;;;;;5.60;5.10;;;;;;;20.65;55.18;100588.98;129253;1276;107522;-75
2023/07/09 03:02:20;;;;;;;6.90;5.60;;;;;;;20.75;55.14;100592.84;129365;1273;107335;-76
2023/07/09 03:05:26;;;;;;;6.40;5.70;;;;;;;20.91;54.98;100593.70;129286;1268;107685;-76
2023/07/09 03:08:31;;;;;;;6.40;5.80;;;;;;;21.04;54.64;100598.85;129335;1273;107469;-75
2023/07/09 03:11:37;;;;;;;5.90;5.30;;;;;;;21.14;54.58;100597.95;129255;1276;107532;-76
2023/07/09 03:14:43;;;;;;;6.00;5.20;;;;;;;21.25;54.32;100600.77;129302;1273;107568;-75
2023/07/09 03:17:49;;;;;;;6.70;5.60;;;;;;;21.27;53.77;100601.27;129452;1274;107329;-75
2023/07/09 03:20:55;;;;;;;6.50;5.60;;;;;;;21.12;53.79;100599.52;129321;1267;107543;-75
2023/07/09 03:24:01;;;;;;;6.00;5.40;;;;;;;21.19;53.76;100599.30;129330;1273;105734;-74
2023/07/09 03:27:09;;;;;;;6.30;5.70;;;;;;;21.22;53.57;100600.16;129291;1273;106004;-75
2023/07/09 03:30:15;;;;;;;6.10;5.50;;;;;;;21.29;53.44;100600.80;129149;1273;107434;-74
2023/07/09 03:33:20;;;;;;;6.20;5.60;;;;;;;21.54;53.53;100601.38;129075;1268;107767;-74
2023/07/09 03:36:26;;;;;;;5.90;5.30;;;;;;;21.77;52.99;100603.67;129155;1274;107541;-74
2023/07/09 03:39:33;;;;;;;7.40;5.50;;;;;;;21.94;52.91;100604.07;129451;1267;107566;-74
2023/07/09 03:42:39;;;;;;;5.50;5.00;;;;;;;22.20;52.72;100603.80;129465;1273;107553;-75
2023/07/09 03:45:47;;;;;;;5.70;5.20;;;;;;;22.34;52.27;100604.42;129315;1273;107598;-76
2023/07/09 03:48:52;;;;;;;6.50;5.20;;;;;;;22.35;52.28;100607.63;129267;1267;107428;-76
2023/07/09 03:51:58;;;;;;;5.80;5.30;;;;;;;22.42;52.24;100608.27;129157;1273;107652;-76
2023/07/09 03:55:04;;;;;;;6.40;5.80;;;;;;;22.67;52.03;100612.06;129408;1273;107589;-76
2023/07/09 03:58:10;;;;;;;6.00;5.40;;;;;;;22.82;51.66;100614.34;129215;1267;107644;-75
2023/07/09 04:01:16;;;;;;;6.70;4.90;;;;;;;22.94;51.40;100615.77;129418;1268;106577;-75
2023/07/09 04:04:22;;;;;;;5.60;5.00;;;;;;;23.08;51.47;100620.23;129228;1267;105976;-75
2023/07/09 04:07:27;;;;;;;5.50;5.00;;;;;;;23.25;51.31;100617.19;129304;1273;107531;-75
2023/07/09 04:10:33;;;;;;;5.50;5.00;;;;;;;23.41;50.84;100618.89;129417;1273;106846;-75
2023/07/09 04:13:39;;;;;;;7.20;5.10;;;;;;;23.52;50.71;100622.21;129441;1268;107247;-75
2023/07/09 04:16:44;;;;;;;5.50;5.00;;;;;;;23.56;50.62;100617.13;129376;1273;107484;-75
2023/07/09 04:19:50;;;;;;;5.10;4.60;;;;;;;23.63;50.30;100619.83;129307;1273;107638;-78
2023/07/09 04:22:55;;;;;;;6.40;5.70;;;;;;;23.55;49.50;100623.67;129233;1268;107356;-78
2023/07/09 04:26:02;;;;;;;6.10;5.30;;;;;;;23.36;49.57;100620.99;129351;1268;107514;-75
2023/07/09 04:29:08;;;;;;;6.60;5.20;;;;;;;23.19;49.95;100622.16;129419;1273;108765;-75
2023/07/09 04:32:16;;;;;;;6.10;5.50;;;;;;;23.05;50.05;100622.33;129550;1273;107585;-75
2023/07/09 04:35:21;;;;;;;6.40;5.40;;;;;;;22.87;49.74;100625.55;129474;1268;107419;-75
2023/07/09 04:38:27;;;;;;;6.20;5.60;;;;;;;22.75;50.29;100632.95;129267;1267;107578;-75
2023/07/09 04:41:33;;;;;;;6.80;5.00;;;;;;;22.66;50.53;100630.90;129235;1268;107249;-75
2023/07/09 04:44:39;;;;;;;6.80;5.30;;;;;;;22.77;50.35;100635.15;129247;1273;106739;-75
2023/07/09 04:47:44;;;;;;;6.10;5.00;;;;;;;22.78;50.25;100637.86;129477;1268;107427;-76
2023/07/09 04:50:50;;;;;;;6.20;5.20;;;;;;;22.66;50.08;100638.19;129380;1268;107564;-75
2023/07/09 04:53:55;;;;;;;6.90;5.10;;;;;;;22.49;50.56;100641.52;129225;1272;106916;-75
2023/07/09 04:57:01;;;;;;;8.20;4.80;;;;;;;22.52;50.55;100646.89;131037;1268;107452;-76
2023/07/09 05:00:09;;;;;;;7.50;4.90;;;;;;;22.46;50.51;100647.11;129576;1273;109357;-75
2023/07/09 05:03:16;;;;;;;5.80;5.10;;;;;;;22.26;50.55;100648.15;129559;1273;107962;-76
2023/07/09 05:06:22;;;;;;;5.50;5.00;;;;;;;22.01;50.67;100646.41;129349;1268;106844;-75
2023/07/09 05:09:27;;;;;;;6.10;5.50;;;;;;;21.92;50.67;100644.95;129464;1273;107543;-76
2023/07/09 05:12:33;;;;;;;5.00;4.60;;;;;;;21.67;51.11;100643.05;129500;1273;107537;-76
2023/07/09 05:15:44;;;;;;;5.90;4.60;;;;;;;21.62;51.36;100646.52;129492;1273;107493;-76
2023/07/09 05:18:49;;;;;;;6.80;4.90;;;;;;;21.69;51.58;100647.85;129508;1268;107073;-78
2023/07/09 05:21:55;;;;;;;4.70;4.30;;;;;;;21.56;51.51;100643.10;129447;1267;107272;-77
2023/07/09 05:25:00;;;;;;;5.30;4.20;;;;;;;21.50;51.68;100645.42;129453;1273;107569;-76
2023/07/09 05:28:07;;;;;;;5.40;4.30;;;;;;;21.52;51.73;100646.59;129386;1272;107551;-76
2023/07/09 05:31:12;;;;;;;4.40;3.90;;;;;;;21.74;51.74;100647.36;129489;1267;107769;-76
2023/07/09 05:34:18;;;;;;;4.70;4.10;;;;;;;21.97;51.41;100650.56;129480;1273;107547;-79
2023/07/09 05:37:23;;;;;;;6.90;4.20;;;;;;;22.19;51.33;100657.54;129480;1272;107586;-76
2023/07/09 05:40:30;;;;;;;4.30;3.90;;;;;;;22.21;51.24;100659.45;129432;1273;107548;-77
2023/07/09 05:43:35;;;;;;;5.10;4.20;;;;;;;22.14;51.50;100660.07;129644;1273;107665;-76
2023/07/09 05:46:41;;;;;;;7.60;3.90;;;;;;;22.03;51.06;100662.32;129565;1272;107594;-75
2023/07/09 05:49:49;;;;;;;4.80;3.90;;;;;;;22.04;51.38;100663.31;129386;1273;107739;-76
2023/07/09 05:52:55;;;;;;;4.00;3.60;;;;;;;22.22;51.16;100655.76;129425;1273;108232;-77
2023/07/09 05:56:00;;;;;;;4.90;3.70;;;;;;;22.41;51.28;100650.70;129493;1272;107545;-76
2023/07/09 05:59:06;;;;;;;5.00;4.20;;;;;;;22.45;51.07;100651.16;129503;1272;107574;-77
2023/07/09 06:02:14;;;;;;;3.90;3.30;;;;;;;22.34;51.41;100655.15;129499;1273;107522;-77
2023/07/09 06:05:21;;;;;;;3.70;3.40;;;;;;;22.37;51.27;100654.20;129537;1272;107514;-76
2023/07/09 06:08:28;;;;;;;4.50;3.50;;;;;;;22.56;51.12;100656.26;129505;1273;107542;-77
2023/07/09 06:11:34;;;;;;;3.70;3.40;;;;;;;22.53;50.81;100663.20;129455;1273;108839;-78
2023/07/09 06:14:40;;;;;;;4.80;3.50;;;;;;;22.42;50.70;100661.79;129352;1273;107554;-76
2023/07/09 06:17:46;;;;;;;5.60;3.10;;;;;;;22.46;50.78;100656.85;129269;1273;107521;-82
2023/07/09 06:20:55;;;;;;;4.40;3.30;;;;;;;22.53;50.55;100658.73;129668;1267;108161;-79
2023/07/09 06:24:00;;;;;;;5.70;3.00;;;;;;;22.48;50.46;100668.01;129443;1273;107491;-78
2023/07/09 06:27:07;;;;;;;4.00;3.50;;;;;;;22.46;50.68;100667.98;129264;1267;107265;-78
2023/07/09 06:30:14;;;;;;;4.60;3.10;;;;;;;22.34;50.53;100673.46;129187;1272;107713;-76
2023/07/09 06:33:20;;;;;;;4.00;2.90;;;;;;;22.22;50.47;100671.37;129270;1267;107806;-76
2023/07/09 06:36:26;;;;;;;3.80;3.40;;;;;;;22.08;50.88;100678.64;129298;1273;107537;-78
2023/07/09 06:39:31;;;;;;;3.60;2.90;;;;;;;22.02;51.11;100682.80;129219;1273;107550;-73
2023/07/09 06:42:38;;;;;;;3.30;3.00;;;;;;;22.07;51.19;100684.83;129133;1273;107566;-72
2023/07/09 06:45:55;;;;;;;5.90;3.70;;;;;;;22.17;51.19;100681.89;129217;1267;107585;-74
2023/07/09 06:48:59;;;;;;;;;;;;;;;22.13;51.05;100676.73;129522;1272;108530;-72
2023/07/09 06:52:06;;;;;;;5.30;3.30;;;;;;;22.12;51.31;100681.41;129156;1273;107505;-72
2023/07/09 06:55:11;;;;;;;5.20;3.00;;;;;;;22.19;51.17;100685.68;129166;1267;107428;-73
2023/07/09 06:58:18;;;;;;;3.60;2.90;;;;;;;22.24;51.19;100686.75;129196;1272;107513;-74
2023/07/09 07:01:23;;;;;;;3.20;2.70;;;;;;;22.27;51.35;100685.86;129248;1273;107553;-72
2023/07/09 07:04:29;;;;;;;3.00;2.70;;;;;;;22.23;51.22;100682.36;129526;1267;107597;-73
2023/07/09 07:07:34;;;;;;;3.50;3.00;;;;;;;22.23;51.12;100679.70;129311;1273;107362;-72
2023/07/09 07:10:40;;;;;;;3.10;2.80;;;;;;;22.25;50.86;100682.65;129341;1268;108160;-72
2023/07/09 07:13:46;;;;;;;3.50;2.70;;;;;;;22.29;50.84;100678.48;129423;1273;107560;-72
2023/07/09 07:16:52;;;;;;;5.70;2.80;;;;;;;22.32;50.56;100677.24;129162;1273;107421;-73
2023/07/09 07:19:58;;;;;;;2.60;2.40;;;;;;;22.30;50.31;100680.27;129451;1272;107341;-72
2023/07/09 07:23:03;;;;;;;3.70;2.40;;;;;;;22.35;50.34;100677.85;129175;1272;107540;-72
2023/07/09 07:26:10;;;;;;;4.00;3.10;;;;;;;22.45;50.05;100685.05;129224;1268;108184;-74
2023/07/09 07:29:17;;;;;;;2.70;2.30;;;;;;;22.53;50.17;100688.67;129227;1276;107620;-72
2023/07/09 07:32:22;;;;;;;3.40;2.60;;;;;;;22.57;49.85;100689.57;129376;1268;107574;-73
2023/07/09 07:35:28;;;;;;;3.60;2.80;;;;;;;22.58;50.00;100684.20;129381;1273;105943;-73
2023/07/09 07:38:33;;;;;;;4.10;2.60;;;;;;;22.66;49.99;100685.17;129388;1267;105869;-73
2023/07/09 07:41:39;;;;;;;3.40;2.60;;;;;;;22.77;49.90;100683.23;129486;1273;107582;-72
2023/07/09 07:44:44;;;;;;;4.10;2.30;;;;;;;22.81;49.71;100683.05;129490;1272;107532;-72
2023/07/09 07:47:52;;;;;;;3.70;2.40;;;;;;;22.90;49.81;100683.82;129434;1273;107628;-72
2023/07/09 07:51:03;;;;;;;2.70;2.20;;;;;;;23.00;49.51;100683.45;129477;1273;107609;-72
2023/07/09 07:54:10;;;;;;;3.40;2.10;;;;;;;23.07;49.15;100683.23;129255;1273;107587;-72
2023/07/09 07:57:16;;;;;;;2.90;2.30;;;;;;;23.06;48.71;100680.70;129371;1273;107557;-72
2023/07/09 08:00:22;;;;;;;3.80;2.40;;;;;;;23.11;49.24;100680.80;129390;1268;109337;-72
2023/07/09 08:03:28;;;;;;;2.50;2.30;;;;;;;23.23;48.45;100676.83;129413;1273;107404;-73
2023/07/09 08:06:33;;;;;;;3.90;2.50;;;;;;;23.25;48.39;100674.16;129458;1273;107385;-73
2023/07/09 08:09:39;;;;;;;3.00;2.30;;;;;;;23.29;48.84;100671.10;129256;1273;107591;-74
2023/07/09 08:12:45;;;;;;;2.40;2.20;;;;;;;23.38;48.44;100675.66;129245;1268;107526;-74
2023/07/09 08:15:51;;;;;;;3.90;2.40;;;;;;;23.46;48.42;100674.88;129383;1272;107019;-74
2023/07/09 08:18:56;;;;;;;2.60;2.40;;;;;;;23.59;48.77;100678.11;129435;1272;107572;-73
2023/07/09 08:22:02;;;;;;;2.60;2.10;;;;;;;23.70;48.03;100672.56;129358;1273;105813;-76
2023/07/09 08:25:09;;;;;;;2.90;2.30;;;;;;;23.77;47.65;100672.27;129448;1273;107664;-75
2023/07/09 08:28:15;;;;;;;2.10;1.90;;;;;;;23.86;47.88;100671.34;129232;1274;107580;-74
2023/07/09 08:31:20;;;;;;;6.00;2.80;;;;;;;23.96;47.80;100669.26;129298;1268;108080;-78
2023/07/09 08:34:26;;;;;;;2.80;2.30;;;;;;;24.00;46.14;100672.61;129342;1273;107390;-76
2023/07/09 08:37:31;;;;;;;3.10;2.30;;;;;;;24.00;46.26;100670.98;129450;1273;107727;-76
2023/07/09 08:40:41;;;;;;;2.70;2.20;;;;;;;24.05;46.70;100670.10;129438;1273;107430;-74
2023/07/09 08:43:58;;;;;;;2.40;2.00;;;;;;;24.12;46.41;100668.32;129413;1268;107371;-74
2023/07/09 08:47:11;;;;;;;2.60;2.30;;;;;;;24.22;45.76;100666.83;129344;1273;107585;-75
2023/07/09 08:50:20;;;;;;;2.60;2.30;;;;;;;24.25;45.86;100665.22;129472;1269;107489;-75
2023/07/09 08:53:34;;;;;;;2.90;2.20;;;;;;;24.34;45.32;100659.42;129477;1273;107438;-75
2023/07/09 08:56:39;;;;;;;2.90;2.20;;;;;;;24.34;45.66;100654.97;129357;1267;107292;-75
2023/07/09 08:59:45;;;;;;;2.90;2.10;;;;;;;24.40;45.79;100658.16;129453;1273;107591;-75
2023/07/09 09:02:57;;;;;;;2.50;1.90;;;;;;;24.44;44.86;100656.24;129449;1279;107573;-74
2023/07/09 09:06:02;;;;;;;3.50;2.40;;;;;;;24.49;43.67;100659.87;129108;1274;107554;-74
2023/07/09 09:09:19;;;;;;;4.30;2.30;;;;;;;24.53;42.97;100659.27;129221;1274;107402;-74
2023/07/09 09:12:30;;;;;;;2.40;2.20;;;;;;;24.53;42.82;100666.03;129206;1277;107403;-74
2023/07/09 09:15:37;;;;;;;2.50;2.30;;;;;;;24.55;43.85;100664.94;129247;1267;107490;-74
2023/07/09 09:18:46;;;;;;;2.60;2.10;;;;;;;24.64;44.11;100657.14;129197;1267;107267;-75
2023/07/09 09:21:57;;;;;;;3.90;2.10;;;;;;;24.69;42.88;100652.61;129295;1273;107584;-75
2023/07/09 09:25:04;;;;;;;;;;;;;;;24.69;42.80;100654.24;129227;1281;107589;-75
2023/07/09 09:28:11;;;;;;;3.20;2.10;;;;;;;24.70;41.95;100661.77;129466;1273;107574;-74
2023/07/09 09:31:18;;;;;;;2.80;2.40;;;;;;;24.72;42.92;100653.61;129521;1273;106802;-75
2023/07/09 09:34:28;;;;;;;2.60;2.20;;;;;;;24.75;42.48;100653.84;129504;1273;107594;-74
2023/07/09 09:37:34;;;;;;;3.60;2.20;;;;;;;24.77;42.13;100657.88;129647;1270;107156;-74
2023/07/09 09:40:40;;;;;;;2.40;2.20;;;;;;;24.79;41.35;100655.63;129344;1267;107270;-73
2023/07/09 09:43:47;;;;;;;2.60;2.20;;;;;;;24.84;41.30;100659.95;129214;1273;107501;-75
2023/07/09 09:46:56;;;;;;;3.10;2.10;;;;;;;24.87;41.39;100660.77;129090;1273;107568;-75
2023/07/09 09:50:02;;;;;;;4.40;2.10;;;;;;;24.90;41.51;100653.04;129270;1285;107451;-76
2023/07/09 09:53:10;;;;;;;2.80;1.90;;;;;;;24.92;40.69;100654.00;129138;1268;107542;-77
2023/07/09 09:56:19;;;;;;;2.50;2.00;;;;;;;25.01;41.26;100651.80;129464;1272;107324;-77
2023/07/09 09:59:31;;;;;;;2.60;2.00;;;;;;;25.10;41.09;100648.52;129258;1273;105732;-75
2023/07/09 10:02:40;;;;;;;;;;;;;;;25.19;39.81;100652.20;129271;1277;107297;-76
2023/07/09 10:05:51;;;;;;;1.80;1.70;;;;;;;25.22;40.18;100651.89;129437;1273;107506;-78
2023/07/09 10:09:03;;;;;;;4.30;1.90;;;;;;;25.25;40.06;100648.77;129342;1273;107575;-76
2023/07/09 10:12:19;;;;;;;2.60;1.80;;;;;;;25.27;38.50;100650.55;129460;1273;107459;-77
2023/07/09 10:15:37;;;;;;;2.20;1.70;;;;;;;25.25;38.47;100656.14;129508;1274;107455;-75
2023/07/09 10:18:54;;;;;;;2.70;1.90;;;;;;;25.27;36.33;100657.32;129775;1273;106820;-75
2023/07/09 10:22:03;;;;;;;2.20;1.70;;;;;;;25.25;36.89;100656.30;130278;1272;107595;-75
2023/07/09 10:25:21;;;;;;;4.00;2.40;;;;;;;25.30;35.40;100652.42;129175;1274;107491;-75
2023/07/09 10:28:50;;;;;;;3.20;2.40;;;;;;;25.42;35.44;100646.33;129398;1272;107538;-75
2023/07/09 10:32:07;;;;;;;2.20;1.80;;;;;;;25.56;36.20;100653.52;129215;1273;107522;-75
2023/07/09 10:35:23;;;;;;;1.60;1.50;;;;;;;25.62;34.56;100653.33;129391;1274;107608;-75
2023/07/09 10:38:46;;;;;;;1.60;1.50;;;;;;;25.59;36.23;100649.62;129536;1281;107500;-75
2023/07/09 10:41:57;;;;;;;1.50;1.30;;;;;;;25.71;35.70;100649.29;129485;1273;107435;-76
2023/07/09 10:45:13;;;;;;;1.70;1.10;;;;;;;25.77;34.88;100640.54;129132;1274;109427;-75
2023/07/09 10:48:34;;;;;;;2.30;2.00;;;;;;;25.80;32.93;100643.11;129402;1273;107573;-75
2023/07/09 10:51:44;;;;;;;2.10;1.20;;;;;;;25.82;32.85;100642.06;129434;1273;107512;-75
2023/07/09 10:55:01;;;;;;;1.20;1.00;;;;;;;25.83;33.70;100641.39;129323;1268;107565;-76
2023/07/09 10:58:17;;;;;;;1.40;1.20;;;;;;;25.86;32.70;100640.49;129244;1281;106533;-78
2023/07/09 11:01:33;;;;;;;1.10;0.80;;;;;;;25.87;33.25;100637.61;129283;1268;108434;-76
2023/07/09 11:04:47;;;;;;;2.20;0.90;;;;;;;25.89;32.78;100643.77;129254;1273;107610;-76
2023/07/09 11:08:00;;;;;;;1.10;0.80;;;;;;;25.94;33.43;100639.42;129569;1268;107917;-80
2023/07/09 11:11:10;;;;;;;0.90;0.80;;;;;;;26.01;31.73;100641.02;129443;1273;106684;-77
2023/07/09 11:14:27;;;;;;;0.90;0.80;;;;;;;26.03;32.18;100641.32;129343;1268;107926;-76
2023/07/09 11:17:35;;;;;;;1.10;0.80;;;;;;;26.05;32.53;100636.44;129516;1284;106714;-76
2023/07/09 11:20:45;;;;;;;1.70;0.50;;;;;;;26.04;32.00;100634.85;129534;1273;108362;-76
2023/07/09 11:23:53;;;;;;;2.10;0.70;;;;;;;26.04;31.77;100643.48;129337;1273;107489;-76
2023/07/09 11:27:00;;;;;;;0.70;0.60;;;;;;;26.05;31.62;100646.45;129211;1273;108592;-76
2023/07/09 11:30:22;;;;;;;0.80;0.70;;;;;;;26.06;31.75;100638.54;129459;1281;108006;-76
2023/07/09 11:33:31;;;;;;;1.80;0.60;;;;;;;26.10;31.44;100641.56;129293;1273;107596;-77
2023/07/09 11:36:47;;;;;;;1.70;0.90;;;;;;;26.13;31.87;100640.42;129544;1274;107823;-77
2023/07/09 11:39:53;;;;;;;0.70;0.70;;;;;;;26.20;32.03;100638.29;129488;1272;108777;-76
2023/07/09 11:43:00;;;;;;;0.90;0.80;;;;;;;26.27;32.60;100634.80;129492;1268;107561;-77
2023/07/09 11:46:12;;;;;;;0.70;0.70;;;;;;;26.38;32.40;100634.20;129440;1273;107549;-74
2023/07/09 11:49:19;;;;;;;0.90;0.70;;;;;;;26.51;32.31;100639.10;129451;1274;107413;-76
2023/07/09 11:52:32;;;;;;;1.00;0.70;;;;;;;26.61;32.38;100640.33;129340;1272;107655;-76
2023/07/09 11:55:41;;;;;;;4.40;1.00;;;;;;;26.70;32.71;100631.83;129347;1274;108046;-76
2023/07/09 11:58:56;;;;;;;2.10;0.80;;;;;;;26.73;31.06;100636.73;129263;1281;107488;-76
2023/07/09 12:02:03;;;;;;;1.40;0.80;;;;;;;26.74;31.69;100632.09;129410;1273;107585;-76
2023/07/09 12:05:10;;;;;;;1.60;1.00;;;;;;;26.73;31.81;100628.57;129445;1281;107544;-76
2023/07/09 12:08:18;;;;;;;1.30;0.80;;;;;;;26.76;31.99;100625.89;129601;1273;107492;-77
2023/07/09 12:11:27;;;;;;;1.60;1.10;;;;;;;26.82;31.43;100626.27;129474;1273;107245;-77
2023/07/09 12:14:32;;;;;;;1.10;0.80;;;;;;;26.81;30.99;100623.61;129516;1273;108021;-77
2023/07/09 12:17:38;;;;;;;1.50;0.90;;;;;;;26.79;31.14;100623.52;129516;1282;107561;-77
2023/07/09 12:20:49;;;;;;;0.80;0.80;;;;;;;26.79;30.36;100619.85;129501;1273;107562;-77
2023/07/09 12:23:56;;;;;;;3.50;1.00;;;;;;;26.84;30.52;100616.16;129446;1273;107576;-78
2023/07/09 12:27:04;;;;;;;0.90;0.80;;;;;;;26.96;30.11;100619.77;129541;1273;108589;-77
2023/07/09 12:30:14;;;;;;;1.50;1.00;;;;;;;27.06;31.27;100614.86;129360;1273;107520;-77
2023/07/09 12:33:22;;;;;;;1.30;0.90;;;;;;;27.22;31.40;100612.31;129287;1273;107592;-78
2023/07/09 12:36:29;;;;;;;1.30;1.10;;;;;;;27.37;30.39;100613.61;129343;1274;107559;-78
2023/07/09 12:39:38;;;;;;;2.10;1.10;;;;;;;27.49;30.20;100609.86;129377;1268;152544;-77
2023/07/09 12:42:45;;;;;;;1.00;0.90;;;;;;;27.54;29.86;100602.52;129258;1274;107448;-77
2023/07/09 12:45:50;;;;;;;0.90;0.80;;;;;;;27.65;30.36;100604.50;129459;1268;107855;-77
2023/07/09 12:48:57;;;;;;;1.20;0.90;;;;;;;27.76;30.07;100604.23;129620;1270;107407;-78
2023/07/09 12:52:10;;;;;;;0.90;0.80;;;;;;;27.83;30.46;100599.19;129487;1273;107266;-79
2023/07/09 12:55:25;;;;;;;0.80;0.80;;;;;;;27.81;29.84;100598.62;129723;1268;108589;-79
2023/07/09 12:58:35;;;;;;;0.80;0.80;;;;;;;27.82;30.17;100596.10;129737;1268;107486;-77
2023/07/09 13:01:41;;;;;;;1.40;0.80;;;;;;;27.79;29.74;100593.13;129386;1272;105899;-75
2023/07/09 13:04:47;;;;;;;1.90;0.70;;;;;;;27.80;30.14;100591.81;129487;1272;107709;-76
2023/07/09 13:07:55;;;;;;;0.80;0.60;;;;;;;27.79;28.99;100591.65;129527;1272;107886;-77
2023/07/09 13:11:02;;;;;;;0.80;0.70;;;;;;;27.72;28.88;100593.50;129466;1281;107415;-76
2023/07/09 13:14:16;;;;;;;1.10;0.70;;;;;;;27.69;28.44;100600.97;129250;1273;107278;-76
2023/07/09 13:17:22;;;;;;;1.70;0.80;;;;;;;27.64;28.97;100602.35;129490;1273;107428;-76
2023/07/09 13:20:27;;;;;;;1.40;0.80;;;;;;;27.63;28.89;100600.80;129430;1281;107952;-76
2023/07/09 13:23:34;;;;;;;1.00;0.80;;;;;;;27.62;28.50;100599.27;129350;1273;107530;-76
2023/07/09 13:26:40;;;;;;;0.90;0.80;;;;;;;27.63;29.16;100589.84;129222;1273;107501;-76
2023/07/09 13:29:46;;;;;;;1.10;0.70;;;;;;;27.66;29.63;100584.71;129313;1273;107412;-76
2023/07/09 13:32:51;;;;;;;2.10;0.70;;;;;;;27.72;29.34;100585.87;129338;1272;107588;-76
2023/07/09 13:35:57;;;;;;;0.80;0.80;;;;;;;27.73;29.38;100586.09;129473;1272;107604;-76
2023/07/09 13:39:03;;;;;;;2.70;0.70;;;;;;;27.68;29.29;100583.30;129416;1267;107405;-76
2023/07/09 13:42:13;;;;;;;1.10;0.80;;;;;;;27.69;29.63;100586.34;129500;1281;107584;-76
2023/07/09 13:45:23;;;;;;;1.20;0.70;;;;;;;27.70;29.58;100583.61;129479;1272;106238;-78
2023/07/09 13:48:29;;;;;;;1.80;0.70;;;;;;;27.67;28.70;100585.73;129512;1274;107661;-77
2023/07/09 13:51:35;;;;;;;1.20;1.00;;;;;;;27.62;28.33;100583.53;129452;1272;107635;-78
2023/07/09 13:54:42;;;;;;;1.20;0.80;;;;;;;27.56;28.27;100581.87;129341;1274;107814;-78
2023/07/09 13:57:48;;;;;;;0.90;0.80;;;;;;;27.53;29.03;100575.31;129409;1272;108358;-78
2023/07/09 14:00:59;;;;;;;1.50;0.90;;;;;;;27.56;28.93;100573.64;129516;1273;107569;-75
2023/07/09 14:04:05;;;;;;;1.50;0.80;;;;;;;27.58;29.36;100574.77;129538;1281;107391;-76
2023/07/09 14:07:25;;;;;;;1.00;0.70;;;;;;;27.62;29.15;100570.75;129789;1268;107513;-76
2023/07/09 14:10:31;;;;;;;1.10;0.80;;;;;;;27.59;28.76;100575.05;129665;1274;107473;-75
2023/07/09 14:13:36;;;;;;;2.30;0.80;;;;;;;27.57;29.23;100573.92;129481;1272;107577;-77